sensor_id;sensor_type;location;lat;lon;timestamp;P1;durP1;ratioP1;P2;durP2;ratioP2
15624;SDS011;7912;51.376;6.126;2023-07-02T00:02:16;5.83;;;4.27;;
15624;SDS011;7912;51.376;6.126;2023-07-02T00:04:45;5.50;;;3.93;;
15624;SDS011;7912;51.376;6.126;2023-07-02T00:07:13;6.10;;;4.40;;
15624;SDS011;7912;51.376;6.126;2023-07-02T00:09:43;9.03;;;4.67;;
15624;SDS011;7912;51.376;6.126;2023-07-02T00:12:10;7.63;;;4.57;;
15624;SDS011;7912;51.376;6.126;2023-07-02T00:14:38;5.20;;;4.30;;
15624;SDS011;7912;51.376;6.126;2023-07-02T00:17:05;6.47;;;4.37;;
15624;SDS011;7912;51.376;6.126;2023-07-02T00:19:33;7.67;;;4.70;;
15624;SDS011;7912;51.376;6.126;2023-07-02T00:22:00;5.40;;;4.47;;
15624;SDS011;7912;51.376;6.126;2023-07-02T00:24:29;8.13;;;4.30;;
15624;SDS011;7912;51.376;6.126;2023-07-02T00:26:56;4.70;;;4.23;;
15624;SDS011;7912;51.376;6.126;2023-07-02T00:29:23;6.80;;;4.57;;
15624;SDS011;7912;51.376;6.126;2023-07-02T00:31:51;6.70;;;4.50;;
15624;SDS011;7912;51.376;6.126;2023-07-02T00:34:18;7.67;;;4.60;;
15624;SDS011;7912;51.376;6.126;2023-07-02T00:36:46;7.90;;;5.03;;
15624;SDS011;7912;51.376;6.126;2023-07-02T00:39:13;6.83;;;4.97;;
15624;SDS011;7912;51.376;6.126;2023-07-02T00:41:42;5.43;;;4.70;;
15624;SDS011;7912;51.376;6.126;2023-07-02T00:44:13;6.43;;;4.83;;
15624;SDS011;7912;51.376;6.126;2023-07-02T00:46:41;6.93;;;4.90;;
15624;SDS011;7912;51.376;6.126;2023-07-02T00:49:08;7.50;;;4.97;;
15624;SDS011;7912;51.376;6.126;2023-07-02T00:51:37;9.13;;;5.10;;
15624;SDS011;7912;51.376;6.126;2023-07-02T00:54:04;7.57;;;5.43;;
15624;SDS011;7912;51.376;6.126;2023-07-02T00:56:32;7.43;;;5.27;;
15624;SDS011;7912;51.376;6.126;2023-07-02T00:58:59;8.83;;;5.50;;
15624;SDS011;7912;51.376;6.126;2023-07-02T01:01:29;8.83;;;5.43;;
15624;SDS011;7912;51.376;6.126;2023-07-02T01:04:00;8.77;;;6.10;;
15624;SDS011;7912;51.376;6.126;2023-07-02T01:06:35;9.10;;;6.10;;
15624;SDS011;7912;51.376;6.126;2023-07-02T01:09:08;8.70;;;5.73;;
15624;SDS011;7912;51.376;6.126;2023-07-02T01:11:38;9.60;;;6.63;;
15624;SDS011;7912;51.376;6.126;2023-07-02T01:14:48;10.77;;;7.03;;
15624;SDS011;7912;51.376;6.126;2023-07-02T01:17:13;10.60;;;6.70;;
15624;SDS011;7912;51.376;6.126;2023-07-02T01:19:54;10.50;;;7.10;;
15624;SDS011;7912;51.376;6.126;2023-07-02T01:22:26;11.37;;;7.00;;
15624;SDS011;7912;51.376;6.126;2023-07-02T01:24:57;10.60;;;7.13;;
15624;SDS011;7912;51.376;6.126;2023-07-02T01:27:27;9.50;;;7.13;;
15624;SDS011;7912;51.376;6.126;2023-07-02T01:29:56;10.73;;;7.17;;
15624;SDS011;7912;51.376;6.126;2023-07-02T01:32:23;13.73;;;7.60;;
15624;SDS011;7912;51.376;6.126;2023-07-02T01:34:51;10.27;;;7.40;;
15624;SDS011;7912;51.376;6.126;2023-07-02T01:37:20;10.40;;;7.00;;
15624;SDS011;7912;51.376;6.126;2023-07-02T01:39:48;10.93;;;7.30;;
15624;SDS011;7912;51.376;6.126;2023-07-02T01:42:19;9.40;;;7.23;;
15624;SDS011;7912;51.376;6.126;2023-07-02T01:44:48;10.87;;;8.23;;
15624;SDS011;7912;51.376;6.126;2023-07-02T01:47:17;11.07;;;7.77;;
15624;SDS011;7912;51.376;6.126;2023-07-02T01:49:46;13.60;;;8.53;;
15624;SDS011;7912;51.376;6.126;2023-07-02T01:52:17;12.60;;;8.17;;
15624;SDS011;7912;51.376;6.126;2023-07-02T01:54:44;13.07;;;8.27;;
15624;SDS011;7912;51.376;6.126;2023-07-02T01:57:13;15.67;;;9.00;;
15624;SDS011;7912;51.376;6.126;2023-07-02T01:59:40;12.67;;;8.40;;
15624;SDS011;7912;51.376;6.126;2023-07-02T02:02:10;13.30;;;8.70;;
15624;SDS011;7912;51.376;6.126;2023-07-02T02:04:37;13.87;;;9.23;;
15624;SDS011;7912;51.376;6.126;2023-07-02T02:07:05;12.50;;;8.47;;
15624;SDS011;7912;51.376;6.126;2023-07-02T02:09:32;11.33;;;8.67;;
15624;SDS011;7912;51.376;6.126;2023-07-02T02:11:59;13.03;;;9.17;;
15624;SDS011;7912;51.376;6.126;2023-07-02T02:14:27;13.00;;;9.07;;
15624;SDS011;7912;51.376;6.126;2023-07-02T02:16:54;15.57;;;8.73;;
15624;SDS011;7912;51.376;6.126;2023-07-02T02:19:22;15.73;;;9.13;;
15624;SDS011;7912;51.376;6.126;2023-07-02T02:21:49;13.03;;;9.57;;
15624;SDS011;7912;51.376;6.126;2023-07-02T02:24:16;14.47;;;10.30;;
15624;SDS011;7912;51.376;6.126;2023-07-02T02:26:44;16.57;;;10.67;;
15624;SDS011;7912;51.376;6.126;2023-07-02T02:29:11;14.20;;;10.13;;
15624;SDS011;7912;51.376;6.126;2023-07-02T02:31:38;16.17;;;10.07;;
15624;SDS011;7912;51.376;6.126;2023-07-02T02:34:05;14.57;;;10.23;;
15624;SDS011;7912;51.376;6.126;2023-07-02T02:39:40;16.30;;;10.20;;
15624;SDS011;7912;51.376;6.126;2023-07-02T02:42:07;17.20;;;10.37;;
15624;SDS011;7912;51.376;6.126;2023-07-02T02:44:35;14.13;;;10.33;;
15624;SDS011;7912;51.376;6.126;2023-07-02T02:47:04;17.13;;;11.43;;
15624;SDS011;7912;51.376;6.126;2023-07-02T02:49:32;14.57;;;10.60;;
15624;SDS011;7912;51.376;6.126;2023-07-02T02:51:59;14.47;;;10.37;;
15624;SDS011;7912;51.376;6.126;2023-07-02T02:54:27;20.40;;;11.97;;
15624;SDS011;7912;51.376;6.126;2023-07-02T02:56:54;18.30;;;10.80;;
15624;SDS011;7912;51.376;6.126;2023-07-02T02:59:21;19.27;;;11.63;;
15624;SDS011;7912;51.376;6.126;2023-07-02T03:01:49;16.30;;;11.80;;
15624;SDS011;7912;51.376;6.126;2023-07-02T03:04:18;16.07;;;12.00;;
15624;SDS011;7912;51.376;6.126;2023-07-02T03:06:51;18.83;;;12.13;;
15624;SDS011;7912;51.376;6.126;2023-07-02T03:09:22;17.37;;;11.70;;
15624;SDS011;7912;51.376;6.126;2023-07-02T03:11:49;17.17;;;12.67;;
15624;SDS011;7912;51.376;6.126;2023-07-02T03:14:17;17.13;;;12.33;;
15624;SDS011;7912;51.376;6.126;2023-07-02T03:16:44;17.97;;;11.70;;
15624;SDS011;7912;51.376;6.126;2023-07-02T03:19:13;15.93;;;11.97;;
15624;SDS011;7912;51.376;6.126;2023-07-02T03:21:43;20.13;;;13.23;;
15624;SDS011;7912;51.376;6.126;2023-07-02T03:24:10;22.17;;;13.20;;
15624;SDS011;7912;51.376;6.126;2023-07-02T03:26:40;19.60;;;12.80;;
15624;SDS011;7912;51.376;6.126;2023-07-02T03:29:09;18.37;;;12.80;;
15624;SDS011;7912;51.376;6.126;2023-07-02T03:31:37;22.20;;;14.30;;
15624;SDS011;7912;51.376;6.126;2023-07-02T03:34:10;20.23;;;13.70;;
15624;SDS011;7912;51.376;6.126;2023-07-02T03:36:37;20.17;;;14.10;;
15624;SDS011;7912;51.376;6.126;2023-07-02T03:39:05;16.90;;;12.13;;
15624;SDS011;7912;51.376;6.126;2023-07-02T03:41:35;20.90;;;13.57;;
15624;SDS011;7912;51.376;6.126;2023-07-02T03:44:04;19.87;;;12.57;;
15624;SDS011;7912;51.376;6.126;2023-07-02T03:46:32;20.30;;;14.10;;
15624;SDS011;7912;51.376;6.126;2023-07-02T03:49:00;22.87;;;13.90;;
15624;SDS011;7912;51.376;6.126;2023-07-02T03:51:31;18.77;;;13.60;;
15624;SDS011;7912;51.376;6.126;2023-07-02T03:53:59;22.20;;;14.73;;
15624;SDS011;7912;51.376;6.126;2023-07-02T03:56:26;23.07;;;14.60;;
15624;SDS011;7912;51.376;6.126;2023-07-02T03:58:53;23.30;;;14.80;;
15624;SDS011;7912;51.376;6.126;2023-07-02T04:01:21;20.97;;;14.07;;
15624;SDS011;7912;51.376;6.126;2023-07-02T04:03:49;23.13;;;14.23;;
15624;SDS011;7912;51.376;6.126;2023-07-02T04:06:18;21.90;;;14.53;;
15624;SDS011;7912;51.376;6.126;2023-07-02T04:08:46;21.67;;;14.80;;
15624;SDS011;7912;51.376;6.126;2023-07-02T04:11:13;25.10;;;15.20;;
15624;SDS011;7912;51.376;6.126;2023-07-02T04:13:41;23.20;;;15.57;;
15624;SDS011;7912;51.376;6.126;2023-07-02T04:16:09;22.97;;;16.07;;
15624;SDS011;7912;51.376;6.126;2023-07-02T04:18:36;22.87;;;15.43;;
15624;SDS011;7912;51.376;6.126;2023-07-02T04:21:03;23.00;;;14.73;;
15624;SDS011;7912;51.376;6.126;2023-07-02T04:23:31;21.60;;;14.30;;
15624;SDS011;7912;51.376;6.126;2023-07-02T04:25:59;21.97;;;15.00;;
15624;SDS011;7912;51.376;6.126;2023-07-02T04:28:49;22.63;;;14.73;;
15624;SDS011;7912;51.376;6.126;2023-07-02T04:31:16;27.23;;;15.63;;
15624;SDS011;7912;51.376;6.126;2023-07-02T04:33:43;21.40;;;14.63;;
15624;SDS011;7912;51.376;6.126;2023-07-02T04:36:11;22.20;;;14.83;;
15624;SDS011;7912;51.376;6.126;2023-07-02T04:38:38;20.90;;;13.83;;
15624;SDS011;7912;51.376;6.126;2023-07-02T04:41:06;21.97;;;15.50;;
15624;SDS011;7912;51.376;6.126;2023-07-02T04:43:36;24.77;;;15.50;;
15624;SDS011;7912;51.376;6.126;2023-07-02T04:46:04;23.20;;;14.97;;
15624;SDS011;7912;51.376;6.126;2023-07-02T04:48:34;22.57;;;15.47;;
15624;SDS011;7912;51.376;6.126;2023-07-02T04:51:01;20.47;;;14.60;;
15624;SDS011;7912;51.376;6.126;2023-07-02T04:53:29;23.63;;;15.27;;
15624;SDS011;7912;51.376;6.126;2023-07-02T04:55:56;22.80;;;15.03;;
15624;SDS011;7912;51.376;6.126;2023-07-02T04:58:24;20.93;;;14.10;;
15624;SDS011;7912;51.376;6.126;2023-07-02T05:00:52;22.47;;;14.63;;
15624;SDS011;7912;51.376;6.126;2023-07-02T05:03:19;20.00;;;14.37;;
15624;SDS011;7912;51.376;6.126;2023-07-02T05:05:48;19.47;;;13.97;;
15624;SDS011;7912;51.376;6.126;2023-07-02T05:08:15;21.93;;;14.47;;
15624;SDS011;7912;51.376;6.126;2023-07-02T05:10:43;22.90;;;14.17;;
15624;SDS011;7912;51.376;6.126;2023-07-02T05:13:10;19.67;;;14.33;;
15624;SDS011;7912;51.376;6.126;2023-07-02T05:15:37;20.60;;;14.00;;
15624;SDS011;7912;51.376;6.126;2023-07-02T05:18:07;21.83;;;13.27;;
15624;SDS011;7912;51.376;6.126;2023-07-02T05:20:34;20.93;;;14.17;;
15624;SDS011;7912;51.376;6.126;2023-07-02T05:23:02;22.13;;;13.43;;
15624;SDS011;7912;51.376;6.126;2023-07-02T05:25:29;20.40;;;14.03;;
15624;SDS011;7912;51.376;6.126;2023-07-02T05:27:56;23.47;;;15.10;;
15624;SDS011;7912;51.376;6.126;2023-07-02T05:30:24;23.80;;;15.10;;
15624;SDS011;7912;51.376;6.126;2023-07-02T05:32:51;21.97;;;14.63;;
15624;SDS011;7912;51.376;6.126;2023-07-02T05:35:18;22.63;;;15.17;;
15624;SDS011;7912;51.376;6.126;2023-07-02T05:37:46;23.87;;;14.37;;
15624;SDS011;7912;51.376;6.126;2023-07-02T05:40:13;19.13;;;14.13;;
15624;SDS011;7912;51.376;6.126;2023-07-02T05:42:42;22.43;;;14.83;;
15624;SDS011;7912;51.376;6.126;2023-07-02T05:45:10;24.07;;;14.43;;
15624;SDS011;7912;51.376;6.126;2023-07-02T05:47:37;19.33;;;13.63;;
15624;SDS011;7912;51.376;6.126;2023-07-02T05:50:05;19.73;;;13.87;;
15624;SDS011;7912;51.376;6.126;2023-07-02T05:52:34;19.10;;;12.20;;
15624;SDS011;7912;51.376;6.126;2023-07-02T05:55:02;20.30;;;12.23;;
15624;SDS011;7912;51.376;6.126;2023-07-02T05:57:30;21.10;;;13.43;;
15624;SDS011;7912;51.376;6.126;2023-07-02T05:59:57;19.93;;;12.47;;
15624;SDS011;7912;51.376;6.126;2023-07-02T06:02:29;20.33;;;12.70;;
15624;SDS011;7912;51.376;6.126;2023-07-02T06:04:56;17.33;;;12.03;;
15624;SDS011;7912;51.376;6.126;2023-07-02T06:07:27;20.80;;;12.23;;
15624;SDS011;7912;51.376;6.126;2023-07-02T06:12:43;19.47;;;12.20;;
15624;SDS011;7912;51.376;6.126;2023-07-02T06:15:11;20.27;;;12.07;;
15624;SDS011;7912;51.376;6.126;2023-07-02T06:17:39;18.93;;;12.57;;
15624;SDS011;7912;51.376;6.126;2023-07-02T06:20:09;15.90;;;11.77;;
15624;SDS011;7912;51.376;6.126;2023-07-02T06:22:37;19.03;;;11.87;;
15624;SDS011;7912;51.376;6.126;2023-07-02T06:25:06;17.13;;;12.23;;
15624;SDS011;7912;51.376;6.126;2023-07-02T06:27:34;16.77;;;11.07;;
15624;SDS011;7912;51.376;6.126;2023-07-02T06:30:01;18.93;;;10.80;;
15624;SDS011;7912;51.376;6.126;2023-07-02T06:32:29;15.87;;;10.93;;
15624;SDS011;7912;51.376;6.126;2023-07-02T06:34:57;16.83;;;10.53;;
15624;SDS011;7912;51.376;6.126;2023-07-02T06:37:25;17.77;;;10.07;;
15624;SDS011;7912;51.376;6.126;2023-07-02T06:39:52;15.47;;;10.30;;
15624;SDS011;7912;51.376;6.126;2023-07-02T06:42:20;15.80;;;9.67;;
15624;SDS011;7912;51.376;6.126;2023-07-02T06:44:48;15.40;;;9.60;;
15624;SDS011;7912;51.376;6.126;2023-07-02T06:47:16;13.30;;;9.00;;
15624;SDS011;7912;51.376;6.126;2023-07-02T06:49:46;14.50;;;9.07;;
15624;SDS011;7912;51.376;6.126;2023-07-02T06:52:14;15.60;;;8.97;;
15624;SDS011;7912;51.376;6.126;2023-07-02T06:54:41;15.57;;;9.40;;
15624;SDS011;7912;51.376;6.126;2023-07-02T06:57:09;14.17;;;9.37;;
15624;SDS011;7912;51.376;6.126;2023-07-02T06:59:36;13.33;;;9.23;;
15624;SDS011;7912;51.376;6.126;2023-07-02T07:02:06;15.53;;;10.10;;
15624;SDS011;7912;51.376;6.126;2023-07-02T07:04:34;13.70;;;9.27;;
15624;SDS011;7912;51.376;6.126;2023-07-02T07:07:01;13.00;;;8.40;;
15624;SDS011;7912;51.376;6.126;2023-07-02T07:09:35;14.87;;;9.53;;
15624;SDS011;7912;51.376;6.126;2023-07-02T07:12:07;14.37;;;8.97;;
15624;SDS011;7912;51.376;6.126;2023-07-02T07:14:34;12.07;;;8.53;;
15624;SDS011;7912;51.376;6.126;2023-07-02T07:17:02;10.33;;;7.97;;
15624;SDS011;7912;51.376;6.126;2023-07-02T07:19:33;12.90;;;8.63;;
15624;SDS011;7912;51.376;6.126;2023-07-02T07:22:00;12.87;;;8.77;;
15624;SDS011;7912;51.376;6.126;2023-07-02T07:24:27;17.33;;;8.53;;
15624;SDS011;7912;51.376;6.126;2023-07-02T07:26:57;12.60;;;8.60;;
15624;SDS011;7912;51.376;6.126;2023-07-02T07:29:24;12.73;;;8.63;;
15624;SDS011;7912;51.376;6.126;2023-07-02T07:31:52;14.10;;;8.47;;
15624;SDS011;7912;51.376;6.126;2023-07-02T07:34:19;12.73;;;8.30;;
15624;SDS011;7912;51.376;6.126;2023-07-02T07:36:47;12.77;;;8.73;;
15624;SDS011;7912;51.376;6.126;2023-07-02T07:39:28;11.07;;;7.80;;
15624;SDS011;7912;51.376;6.126;2023-07-02T07:41:56;12.17;;;7.87;;
15624;SDS011;7912;51.376;6.126;2023-07-02T07:44:24;13.43;;;8.80;;
15624;SDS011;7912;51.376;6.126;2023-07-02T07:46:55;10.40;;;7.90;;
15624;SDS011;7912;51.376;6.126;2023-07-02T07:49:23;16.57;;;7.93;;
15624;SDS011;7912;51.376;6.126;2023-07-02T07:51:50;12.07;;;6.80;;
15624;SDS011;7912;51.376;6.126;2023-07-02T07:54:18;8.77;;;6.90;;
15624;SDS011;7912;51.376;6.126;2023-07-02T07:56:46;11.80;;;7.73;;
15624;SDS011;7912;51.376;6.126;2023-07-02T07:59:13;11.40;;;7.23;;
15624;SDS011;7912;51.376;6.126;2023-07-02T08:01:41;10.67;;;7.20;;
15624;SDS011;7912;51.376;6.126;2023-07-02T08:04:08;11.47;;;7.33;;
15624;SDS011;7912;51.376;6.126;2023-07-02T08:06:36;9.93;;;7.23;;
15624;SDS011;7912;51.376;6.126;2023-07-02T08:09:03;12.10;;;6.87;;
15624;SDS011;7912;51.376;6.126;2023-07-02T08:11:31;9.60;;;7.53;;
15624;SDS011;7912;51.376;6.126;2023-07-02T08:13:59;11.30;;;7.47;;
15624;SDS011;7912;51.376;6.126;2023-07-02T08:16:27;10.27;;;7.07;;
15624;SDS011;7912;51.376;6.126;2023-07-02T08:18:54;12.13;;;7.57;;
15624;SDS011;7912;51.376;6.126;2023-07-02T08:21:22;9.80;;;7.40;;
15624;SDS011;7912;51.376;6.126;2023-07-02T08:23:49;11.37;;;7.47;;
15624;SDS011;7912;51.376;6.126;2023-07-02T08:26:17;11.10;;;7.33;;
15624;SDS011;7912;51.376;6.126;2023-07-02T08:28:45;10.37;;;7.23;;
15624;SDS011;7912;51.376;6.126;2023-07-02T08:31:12;10.87;;;7.27;;
15624;SDS011;7912;51.376;6.126;2023-07-02T08:33:40;10.83;;;7.13;;
15624;SDS011;7912;51.376;6.126;2023-07-02T08:36:07;12.60;;;7.80;;
15624;SDS011;7912;51.376;6.126;2023-07-02T08:38:34;11.13;;;7.30;;
15624;SDS011;7912;51.376;6.126;2023-07-02T08:41:02;12.20;;;7.47;;
15624;SDS011;7912;51.376;6.126;2023-07-02T08:43:29;12.80;;;7.73;;
15624;SDS011;7912;51.376;6.126;2023-07-02T08:45:57;10.57;;;7.20;;
15624;SDS011;7912;51.376;6.126;2023-07-02T08:48:25;10.57;;;7.00;;
15624;SDS011;7912;51.376;6.126;2023-07-02T08:50:56;11.40;;;7.57;;
15624;SDS011;7912;51.376;6.126;2023-07-02T08:53:23;10.77;;;6.80;;
15624;SDS011;7912;51.376;6.126;2023-07-02T08:56:00;11.33;;;6.73;;
15624;SDS011;7912;51.376;6.126;2023-07-02T08:58:30;11.17;;;6.63;;
15624;SDS011;7912;51.376;6.126;2023-07-02T09:01:04;8.70;;;6.10;;
15624;SDS011;7912;51.376;6.126;2023-07-02T09:03:40;9.93;;;5.60;;
15624;SDS011;7912;51.376;6.126;2023-07-02T09:06:08;7.10;;;5.07;;
15624;SDS011;7912;51.376;6.126;2023-07-02T09:08:38;8.20;;;5.40;;
15624;SDS011;7912;51.376;6.126;2023-07-02T09:11:10;10.07;;;6.00;;
15624;SDS011;7912;51.376;6.126;2023-07-02T09:13:49;7.50;;;5.63;;
15624;SDS011;7912;51.376;6.126;2023-07-02T09:16:27;10.23;;;5.73;;
15624;SDS011;7912;51.376;6.126;2023-07-02T09:18:57;8.53;;;6.03;;
15624;SDS011;7912;51.376;6.126;2023-07-02T09:22:05;8.00;;;5.80;;
15624;SDS011;7912;51.376;6.126;2023-07-02T09:24:27;10.07;;;5.97;;
15624;SDS011;7912;51.376;6.126;2023-07-02T09:26:58;9.60;;;6.03;;
15624;SDS011;7912;51.376;6.126;2023-07-02T09:29:29;8.03;;;5.73;;
15624;SDS011;7912;51.376;6.126;2023-07-02T09:32:00;7.40;;;5.40;;
15624;SDS011;7912;51.376;6.126;2023-07-02T09:34:34;9.00;;;5.60;;
15624;SDS011;7912;51.376;6.126;2023-07-02T09:37:03;8.40;;;5.87;;
15624;SDS011;7912;51.376;6.126;2023-07-02T09:39:32;9.90;;;6.00;;
15624;SDS011;7912;51.376;6.126;2023-07-02T09:42:04;9.33;;;5.63;;
15624;SDS011;7912;51.376;6.126;2023-07-02T09:44:35;9.53;;;5.90;;
15624;SDS011;7912;51.376;6.126;2023-07-02T09:50:13;10.27;;;6.40;;
15624;SDS011;7912;51.376;6.126;2023-07-02T09:52:44;8.57;;;5.83;;
15624;SDS011;7912;51.376;6.126;2023-07-02T09:55:14;7.03;;;5.30;;
15624;SDS011;7912;51.376;6.126;2023-07-02T09:57:43;10.07;;;6.27;;
15624;SDS011;7912;51.376;6.126;2023-07-02T10:00:11;9.30;;;6.20;;
15624;SDS011;7912;51.376;6.126;2023-07-02T10:02:40;8.37;;;5.70;;
15624;SDS011;7912;51.376;6.126;2023-07-02T10:05:08;7.70;;;5.80;;
15624;SDS011;7912;51.376;6.126;2023-07-02T10:07:36;9.43;;;5.70;;
15624;SDS011;7912;51.376;6.126;2023-07-02T10:10:03;8.50;;;6.60;;
15624;SDS011;7912;51.376;6.126;2023-07-02T10:12:32;7.93;;;6.13;;
15624;SDS011;7912;51.376;6.126;2023-07-02T10:15:00;10.70;;;6.53;;
15624;SDS011;7912;51.376;6.126;2023-07-02T10:17:28;10.10;;;6.27;;
15624;SDS011;7912;51.376;6.126;2023-07-02T10:20:02;9.93;;;5.90;;
15624;SDS011;7912;51.376;6.126;2023-07-02T10:25:39;8.40;;;5.53;;
15624;SDS011;7912;51.376;6.126;2023-07-02T10:28:17;9.53;;;5.97;;
15624;SDS011;7912;51.376;6.126;2023-07-02T10:30:50;8.10;;;5.67;;
15624;SDS011;7912;51.376;6.126;2023-07-02T10:33:19;10.30;;;6.00;;
15624;SDS011;7912;51.376;6.126;2023-07-02T10:35:48;9.73;;;6.13;;
15624;SDS011;7912;51.376;6.126;2023-07-02T10:38:20;7.63;;;6.00;;
15624;SDS011;7912;51.376;6.126;2023-07-02T10:40:53;9.43;;;5.90;;
15624;SDS011;7912;51.376;6.126;2023-07-02T10:46:09;8.57;;;6.10;;
15624;SDS011;7912;51.376;6.126;2023-07-02T10:48:52;8.70;;;6.60;;
15624;SDS011;7912;51.376;6.126;2023-07-02T10:51:23;11.17;;;7.00;;
15624;SDS011;7912;51.376;6.126;2023-07-02T10:53:57;10.90;;;6.80;;
15624;SDS011;7912;51.376;6.126;2023-07-02T10:56:31;7.17;;;5.73;;
15624;SDS011;7912;51.376;6.126;2023-07-02T10:58:59;11.07;;;6.07;;
15624;SDS011;7912;51.376;6.126;2023-07-02T11:01:31;10.87;;;6.10;;
15624;SDS011;7912;51.376;6.126;2023-07-02T11:04:05;9.63;;;5.90;;
15624;SDS011;7912;51.376;6.126;2023-07-02T11:06:32;10.17;;;5.83;;
15624;SDS011;7912;51.376;6.126;2023-07-02T11:09:00;9.37;;;6.20;;
15624;SDS011;7912;51.376;6.126;2023-07-02T11:11:31;8.93;;;6.70;;
15624;SDS011;7912;51.376;6.126;2023-07-02T11:13:59;11.03;;;6.50;;
15624;SDS011;7912;51.376;6.126;2023-07-02T11:16:26;9.10;;;6.00;;
15624;SDS011;7912;51.376;6.126;2023-07-02T11:19:06;9.47;;;5.80;;
15624;SDS011;7912;51.376;6.126;2023-07-02T11:21:37;9.13;;;5.93;;
15624;SDS011;7912;51.376;6.126;2023-07-02T11:24:07;9.13;;;6.07;;
15624;SDS011;7912;51.376;6.126;2023-07-02T11:29:25;9.23;;;6.70;;
15624;SDS011;7912;51.376;6.126;2023-07-02T11:31:54;10.63;;;6.80;;
15624;SDS011;7912;51.376;6.126;2023-07-02T11:34:36;11.97;;;6.30;;
15624;SDS011;7912;51.376;6.126;2023-07-02T11:37:04;9.33;;;6.73;;
15624;SDS011;7912;51.376;6.126;2023-07-02T11:39:32;10.10;;;6.50;;
15624;SDS011;7912;51.376;6.126;2023-07-02T11:42:03;10.40;;;6.30;;
15624;SDS011;7912;51.376;6.126;2023-07-02T11:44:33;11.47;;;7.23;;
15624;SDS011;7912;51.376;6.126;2023-07-02T11:47:01;11.40;;;7.30;;
15624;SDS011;7912;51.376;6.126;2023-07-02T11:49:31;10.33;;;6.70;;
15624;SDS011;7912;51.376;6.126;2023-07-02T11:51:59;11.07;;;7.60;;
15624;SDS011;7912;51.376;6.126;2023-07-02T11:54:26;10.37;;;6.77;;
15624;SDS011;7912;51.376;6.126;2023-07-02T11:56:54;11.13;;;7.10;;
15624;SDS011;7912;51.376;6.126;2023-07-02T11:59:21;10.77;;;7.10;;
15624;SDS011;7912;51.376;6.126;2023-07-02T12:01:48;10.93;;;6.93;;
15624;SDS011;7912;51.376;6.126;2023-07-02T12:04:16;10.00;;;6.63;;
15624;SDS011;7912;51.376;6.126;2023-07-02T12:06:44;9.60;;;7.23;;
15624;SDS011;7912;51.376;6.126;2023-07-02T12:09:11;9.37;;;7.40;;
15624;SDS011;7912;51.376;6.126;2023-07-02T12:11:39;8.73;;;6.57;;
15624;SDS011;7912;51.376;6.126;2023-07-02T12:14:06;9.27;;;6.70;;
15624;SDS011;7912;51.376;6.126;2023-07-02T12:19:26;8.63;;;6.33;;
15624;SDS011;7912;51.376;6.126;2023-07-02T12:21:53;9.80;;;6.73;;
15624;SDS011;7912;51.376;6.126;2023-07-02T12:24:23;10.30;;;7.53;;
15624;SDS011;7912;51.376;6.126;2023-07-02T12:26:51;11.70;;;7.70;;
15624;SDS011;7912;51.376;6.126;2023-07-02T12:29:19;8.77;;;6.47;;
15624;SDS011;7912;51.376;6.126;2023-07-02T12:31:46;10.43;;;7.60;;
15624;SDS011;7912;51.376;6.126;2023-07-02T12:34:13;11.13;;;7.37;;
15624;SDS011;7912;51.376;6.126;2023-07-02T12:36:41;11.10;;;7.33;;
15624;SDS011;7912;51.376;6.126;2023-07-02T12:39:08;9.77;;;7.37;;
15624;SDS011;7912;51.376;6.126;2023-07-02T12:41:36;11.97;;;7.70;;
15624;SDS011;7912;51.376;6.126;2023-07-02T12:44:04;11.37;;;7.47;;
15624;SDS011;7912;51.376;6.126;2023-07-02T12:46:31;11.00;;;7.23;;
15624;SDS011;7912;51.376;6.126;2023-07-02T12:48:58;11.77;;;7.67;;
15624;SDS011;7912;51.376;6.126;2023-07-02T12:51:26;10.10;;;6.90;;
15624;SDS011;7912;51.376;6.126;2023-07-02T12:53:53;10.67;;;6.90;;
15624;SDS011;7912;51.376;6.126;2023-07-02T12:56:21;14.20;;;7.67;;
15624;SDS011;7912;51.376;6.126;2023-07-02T12:58:48;13.63;;;8.60;;
15624;SDS011;7912;51.376;6.126;2023-07-02T13:01:18;10.90;;;7.83;;
15624;SDS011;7912;51.376;6.126;2023-07-02T13:03:46;11.30;;;7.40;;
15624;SDS011;7912;51.376;6.126;2023-07-02T13:06:14;10.40;;;7.80;;
15624;SDS011;7912;51.376;6.126;2023-07-02T13:08:41;10.93;;;7.67;;
15624;SDS011;7912;51.376;6.126;2023-07-02T13:11:09;12.80;;;8.47;;
15624;SDS011;7912;51.376;6.126;2023-07-02T13:13:36;12.83;;;7.83;;
15624;SDS011;7912;51.376;6.126;2023-07-02T13:16:04;11.40;;;7.73;;
15624;SDS011;7912;51.376;6.126;2023-07-02T13:18:32;12.30;;;7.70;;
15624;SDS011;7912;51.376;6.126;2023-07-02T13:20:59;12.57;;;7.77;;
15624;SDS011;7912;51.376;6.126;2023-07-02T13:23:26;10.40;;;7.90;;
15624;SDS011;7912;51.376;6.126;2023-07-02T13:25:58;12.17;;;7.57;;
15624;SDS011;7912;51.376;6.126;2023-07-02T13:28:25;11.63;;;8.10;;
15624;SDS011;7912;51.376;6.126;2023-07-02T13:30:54;12.77;;;8.13;;
15624;SDS011;7912;51.376;6.126;2023-07-02T13:33:24;11.97;;;7.90;;
15624;SDS011;7912;51.376;6.126;2023-07-02T13:35:52;11.83;;;7.77;;
15624;SDS011;7912;51.376;6.126;2023-07-02T13:38:20;13.27;;;8.30;;
15624;SDS011;7912;51.376;6.126;2023-07-02T13:40:49;11.07;;;7.37;;
15624;SDS011;7912;51.376;6.126;2023-07-02T13:43:17;11.63;;;7.83;;
15624;SDS011;7912;51.376;6.126;2023-07-02T13:45:44;12.57;;;7.87;;
15624;SDS011;7912;51.376;6.126;2023-07-02T13:48:12;12.17;;;7.63;;
15624;SDS011;7912;51.376;6.126;2023-07-02T13:50:40;9.93;;;7.93;;
15624;SDS011;7912;51.376;6.126;2023-07-02T13:53:07;10.10;;;7.87;;
15624;SDS011;7912;51.376;6.126;2023-07-02T13:55:35;11.03;;;7.63;;
15624;SDS011;7912;51.376;6.126;2023-07-02T13:58:02;11.77;;;7.60;;
15624;SDS011;7912;51.376;6.126;2023-07-02T14:00:30;12.27;;;7.13;;
15624;SDS011;7912;51.376;6.126;2023-07-02T14:02:58;10.47;;;6.97;;
15624;SDS011;7912;51.376;6.126;2023-07-02T14:05:28;11.37;;;7.20;;
15624;SDS011;7912;51.376;6.126;2023-07-02T14:07:55;13.30;;;7.73;;
15624;SDS011;7912;51.376;6.126;2023-07-02T14:10:23;9.43;;;6.87;;
15624;SDS011;7912;51.376;6.126;2023-07-02T14:12:50;10.57;;;6.53;;
15624;SDS011;7912;51.376;6.126;2023-07-02T14:15:21;9.50;;;6.53;;
15624;SDS011;7912;51.376;6.126;2023-07-02T14:17:51;10.10;;;7.40;;
15624;SDS011;7912;51.376;6.126;2023-07-02T14:20:18;15.70;;;8.13;;
15624;SDS011;7912;51.376;6.126;2023-07-02T14:22:46;12.80;;;8.47;;
15624;SDS011;7912;51.376;6.126;2023-07-02T14:25:14;13.53;;;9.43;;
15624;SDS011;7912;51.376;6.126;2023-07-02T14:28:05;11.73;;;7.60;;
15624;SDS011;7912;51.376;6.126;2023-07-02T14:30:32;9.97;;;7.10;;
15624;SDS011;7912;51.376;6.126;2023-07-02T14:32:59;9.00;;;6.20;;
15624;SDS011;7912;51.376;6.126;2023-07-02T14:35:26;9.07;;;6.53;;
15624;SDS011;7912;51.376;6.126;2023-07-02T14:37:56;11.13;;;7.17;;
15624;SDS011;7912;51.376;6.126;2023-07-02T14:40:24;9.53;;;6.73;;
15624;SDS011;7912;51.376;6.126;2023-07-02T14:42:52;11.40;;;7.73;;
15624;SDS011;7912;51.376;6.126;2023-07-02T14:45:19;10.27;;;6.97;;
15624;SDS011;7912;51.376;6.126;2023-07-02T14:47:47;12.50;;;6.90;;
15624;SDS011;7912;51.376;6.126;2023-07-02T14:50:15;10.23;;;7.03;;
15624;SDS011;7912;51.376;6.126;2023-07-02T14:52:45;8.70;;;6.67;;
15624;SDS011;7912;51.376;6.126;2023-07-02T14:55:12;8.80;;;7.57;;
15624;SDS011;7912;51.376;6.126;2023-07-02T15:01:03;11.00;;;7.80;;
15624;SDS011;7912;51.376;6.126;2023-07-02T15:03:31;9.03;;;6.27;;
15624;SDS011;7912;51.376;6.126;2023-07-02T15:06:09;10.50;;;8.83;;
15624;SDS011;7912;51.376;6.126;2023-07-02T15:08:40;9.87;;;6.47;;
15624;SDS011;7912;51.376;6.126;2023-07-02T15:11:12;9.43;;;6.40;;
15624;SDS011;7912;51.376;6.126;2023-07-02T15:13:44;9.67;;;6.50;;
15624;SDS011;7912;51.376;6.126;2023-07-02T15:16:12;9.27;;;6.53;;
15624;SDS011;7912;51.376;6.126;2023-07-02T15:18:39;8.67;;;6.83;;
15624;SDS011;7912;51.376;6.126;2023-07-02T15:21:07;9.40;;;6.10;;
15624;SDS011;7912;51.376;6.126;2023-07-02T15:23:35;10.23;;;6.37;;